Time;durP1;ratioP1;P1;durP2;ratioP2;P2;SDS_P1;SDS_P2;PMS_P1;PMS_P2;Temp;Humidity;BMP_temperature;BMP_pressure;BME280_temperature;BME280_humidity;BME280_pressure;Samples;Min_cycle;Max_cycle;Signal;HPM_P1;HPM_P2
2021/10/03 00:00:12;;;;;;;25.38;14.43;;;;;;;4.37;69.06;94238.44;5072147;28;20027;-51
2021/10/03 00:02:39;;;;;;;;;;;;;;;4.38;69.34;94245.41;5072854;28;20028;-51
2021/10/03 00:05:06;;;;;;;23.73;13.93;;;;;;;4.37;69.96;94238.44;5071738;28;19912;-51
2021/10/03 00:07:32;;;;;;;15.07;10.48;;;;;;;4.42;69.90;94243.19;5071708;28;20040;-51
2021/10/03 00:09:57;;;;;;;16.95;10.75;;;;;;;4.44;69.88;94237.97;5070968;28;20029;-51
2021/10/03 00:12:23;;;;;;;24.35;13.27;;;;;;;4.30;68.87;94227.97;5071802;28;20046;-51
2021/10/03 00:14:50;;;;;;;17.25;9.63;;;;;;;4.25;68.55;94236.13;5070837;28;20031;-51
2021/10/03 00:17:15;;;;;;;18.88;9.98;;;;;;;4.38;69.55;94239.19;5071777;28;20515;-51
2021/10/03 00:19:41;;;;;;;13.07;9.20;;;;;;;4.28;68.45;94241.38;5071373;28;20020;-51
2021/10/03 00:22:07;;;;;;;13.88;9.45;;;;;;;4.20;68.49;94232.13;5071615;28;20068;-51
2021/10/03 00:24:32;;;;;;;10.07;7.68;;;;;;;4.12;68.62;94230.34;5071854;28;20534;-52
2021/10/03 00:26:58;;;;;;;12.15;8.02;;;;;;;4.11;68.41;94237.81;5071814;28;20451;-50
2021/10/03 00:29:25;;;;;;;11.05;7.88;;;;;;;4.10;68.88;94228.09;5071509;28;20496;-51
2021/10/03 00:31:51;;;;;;;12.60;9.02;;;;;;;4.03;68.57;94225.81;5071737;28;20028;-51
2021/10/03 00:34:16;;;;;;;13.00;9.00;;;;;;;4.02;68.23;94223.56;5071699;28;20020;-51
2021/10/03 00:36:42;;;;;;;15.65;9.15;;;;;;;3.94;69.12;94204.16;5071305;28;20036;-51
2021/10/03 00:39:07;;;;;;;25.23;13.77;;;;;;;3.75;68.50;94178.44;5071546;28;20033;-50
2021/10/03 00:41:33;;;;;;;25.27;14.80;;;;;;;4.05;68.38;94222.63;5071456;28;20052;-50
2021/10/03 00:43:59;;;;;;;23.20;14.38;;;;;;;4.02;68.43;94213.41;5071073;28;20031;-50
2021/10/03 00:46:25;;;;;;;10.52;8.40;;;;;;;3.91;68.59;94218.03;5070260;28;20021;-47
2021/10/03 00:48:50;;;;;;;9.85;7.28;;;;;;;3.96;69.53;94218.09;5071373;28;20043;-48
2021/10/03 00:51:16;;;;;;;10.00;7.10;;;;;;;3.96;68.50;94215.34;5071069;28;20071;-49
2021/10/03 00:53:42;;;;;;;15.40;7.30;;;;;;;3.87;68.81;94210.06;5069950;28;20029;-49
2021/10/03 00:56:12;;;;;;;17.63;11.18;;;;;;;3.86;70.27;94214.03;5071243;28;20029;-47
2021/10/03 00:58:37;;;;;;;15.90;10.25;;;;;;;3.86;69.05;94211.28;5069823;28;20181;-49
2021/10/03 01:01:03;;;;;;;15.55;10.20;;;;;;;3.81;69.25;94220.22;5071222;28;20139;-49
2021/10/03 01:03:28;;;;;;;17.92;10.27;;;;;;;3.76;69.15;94218.94;5070759;28;20533;-48
2021/10/03 01:05:54;;;;;;;14.23;9.88;;;;;;;3.73;68.94;94219.16;5071048;28;20031;-50
2021/10/03 01:08:19;;;;;;;14.85;8.32;;;;;;;3.63;69.07;94210.41;5070622;28;20062;-50
2021/10/03 01:10:45;;;;;;;13.95;8.82;;;;;;;3.69;68.64;94213.91;5071037;28;20028;-49
2021/10/03 01:13:13;;;;;;;15.70;8.60;;;;;;;3.63;68.95;94204.94;5070651;28;20024;-52
2021/10/03 01:15:41;;;;;;;10.83;7.90;;;;;;;3.62;69.38;94214.38;5070551;28;20446;-49
2021/10/03 01:18:08;;;;;;;9.50;6.78;;;;;;;3.66;68.50;94222.34;5069899;28;20036;-52
2021/10/03 01:20:34;;;;;;;9.18;6.20;;;;;;;3.57;68.17;94217.78;5070229;28;20028;-58
2021/10/03 01:23:03;;;;;;;8.02;6.28;;;;;;;3.39;68.02;94203.75;5070349;28;20125;-47
2021/10/03 01:25:31;;;;;;;10.57;6.68;;;;;;;3.50;68.56;94215.53;5070450;28;20086;-49
2021/10/03 01:27:57;;;;;;;20.40;9.23;;;;;;;3.42;68.87;94200.06;5069931;28;20036;-52
2021/10/03 01:30:24;;;;;;;15.05;9.43;;;;;;;3.44;69.45;94203.81;5070281;28;20047;-50
2021/10/03 01:32:50;;;;;;;13.20;8.40;;;;;;;3.44;68.83;94209.28;5070103;28;20058;-54
2021/10/03 01:35:16;;;;;;;16.20;8.23;;;;;;;3.45;68.90;94204.53;5070458;28;20083;-53
2021/10/03 01:37:41;;;;;;;9.95;7.35;;;;;;;3.30;69.05;94204.69;5070319;28;20166;-58
2021/10/03 01:40:10;;;;;;;10.90;6.68;;;;;;;3.31;68.69;94195.28;5070312;28;20162;-58
2021/10/03 01:42:36;;;;;;;9.95;6.22;;;;;;;3.29;68.95;94194.25;5070690;28;20032;-58
2021/10/03 01:45:06;;;;;;;8.95;6.35;;;;;;;3.23;69.16;94190.72;5070214;28;20098;-58
2021/10/03 01:47:31;;;;;;;11.80;6.70;;;;;;;3.17;69.04;94187.94;5070288;28;20614;-58
2021/10/03 01:49:57;;;;;;;8.00;5.30;;;;;;;3.16;69.52;94188.44;5070228;28;20068;-58
2021/10/03 01:52:22;;;;;;;11.10;6.72;;;;;;;3.16;69.38;94183.72;5070289;28;20032;-58
2021/10/03 01:54:47;;;;;;;9.10;6.97;;;;;;;3.20;69.66;94186.22;5070167;28;20021;-53
2021/10/03 01:57:13;;;;;;;8.45;6.15;;;;;;;3.06;69.78;94153.13;5070201;28;20031;-56
2021/10/03 01:59:41;;;;;;;10.88;7.30;;;;;;;3.18;70.70;94185.97;5070451;28;20052;-56
2021/10/03 02:02:07;;;;;;;14.75;10.65;;;;;;;3.00;70.03;94176.13;5070102;28;20557;-56
2021/10/03 02:04:33;;;;;;;11.77;8.65;;;;;;;3.18;69.08;94202.34;5069029;28;20036;-56
2021/10/03 02:06:59;;;;;;;12.60;8.82;;;;;;;3.23;69.25;94199.66;5070045;28;20476;-56
2021/10/03 02:09:27;;;;;;;13.27;7.75;;;;;;;3.19;68.69;94199.13;5070098;28;20032;-58
2021/10/03 02:11:55;;;;;;;9.35;6.25;;;;;;;3.16;69.32;94204.81;5070069;28;20522;-53
2021/10/03 02:14:26;;;;;;;8.90;5.75;;;;;;;2.77;69.28;94161.53;5070009;28;20108;-54
2021/10/03 02:16:55;;;;;;;6.70;5.40;;;;;;;2.89;69.17;94190.41;5070369;28;20443;-51
2021/10/03 02:19:24;;;;;;;11.40;5.50;;;;;;;3.02;68.99;94209.13;5069885;28;20020;-50
2021/10/03 02:21:51;;;;;;;5.63;4.78;;;;;;;3.07;68.78;94211.16;5069642;28;20504;-52
2021/10/03 02:24:17;;;;;;;4.82;4.20;;;;;;;2.91;68.75;94196.13;5070153;28;20105;-50
2021/10/03 02:26:42;;;;;;;15.05;5.47;;;;;;;2.97;69.04;94199.66;5069941;28;20466;-50
2021/10/03 02:29:08;;;;;;;9.90;5.65;;;;;;;2.95;69.88;94206.81;5071091;28;20025;-54
2021/10/03 02:31:34;;;;;;;6.57;5.38;;;;;;;2.95;69.79;94199.41;5074105;28;20025;-54
2021/10/03 02:34:00;;;;;;;9.38;6.32;;;;;;;2.85;69.70;94200.78;5073937;28;20094;-51
2021/10/03 02:36:25;;;;;;;10.48;5.95;;;;;;;2.90;70.13;94202.81;5073656;28;20021;-50
2021/10/03 02:38:52;;;;;;;10.63;7.10;;;;;;;2.78;69.51;94203.94;5073911;28;20099;-51
2021/10/03 02:41:18;;;;;;;11.15;7.38;;;;;;;2.74;70.95;94197.94;5073914;28;20028;-52
2021/10/03 02:43:47;;;;;;;10.52;6.70;;;;;;;2.38;70.91;94201.25;5073829;28;20662;-55
2021/10/03 02:46:13;;;;;;;13.27;7.95;;;;;;;2.40;70.93;94198.06;5073708;28;20467;-55
2021/10/03 02:48:39;;;;;;;11.35;8.30;;;;;;;2.46;70.52;94201.59;5073707;28;20085;-55
2021/10/03 02:51:05;;;;;;;10.23;7.80;;;;;;;2.45;70.99;94194.66;5073368;28;20685;-50
2021/10/03 02:53:30;;;;;;;14.55;7.65;;;;;;;2.38;70.84;94193.09;5073339;28;20103;-54
2021/10/03 02:55:56;;;;;;;12.40;7.75;;;;;;;2.47;71.35;94197.66;5073309;28;20055;-51
2021/10/03 02:58:22;;;;;;;10.45;7.00;;;;;;;2.46;71.74;94191.44;5073525;28;20025;-51
2021/10/03 03:00:50;;;;;;;12.23;7.97;;;;;;;2.45;71.53;94189.19;5073549;28;20507;-50
2021/10/03 03:03:15;;;;;;;16.40;8.77;;;;;;;2.44;71.75;94180.28;5073556;28;20052;-51
2021/10/03 03:05:41;;;;;;;11.57;7.35;;;;;;;2.47;70.82;94179.28;5073040;28;20500;-51
2021/10/03 03:08:07;;;;;;;10.20;7.35;;;;;;;2.49;70.28;94170.66;5073302;28;20476;-52
2021/10/03 03:10:33;;;;;;;15.70;8.32;;;;;;;2.47;70.34;94179.28;5073036;28;20472;-55
2021/10/03 03:12:59;;;;;;;12.73;7.72;;;;;;;2.42;70.28;94179.25;5072834;28;20111;-54
2021/10/03 03:15:24;;;;;;;15.52;8.52;;;;;;;2.26;70.30;94147.84;5072994;28;20024;-57
2021/10/03 03:17:50;;;;;;;12.35;8.55;;;;;;;2.37;70.79;94177.94;5073257;28;20035;-56
2021/10/03 03:20:15;;;;;;;19.55;7.65;;;;;;;2.34;69.76;94176.16;5072480;28;20033;-55
2021/10/03 03:22:41;;;;;;;18.85;10.38;;;;;;;2.29;70.07;94172.19;5072656;28;20048;-56
2021/10/03 03:25:09;;;;;;;14.73;8.68;;;;;;;2.36;69.66;94175.72;5073017;28;20025;-55
2021/10/03 03:27:35;;;;;;;14.10;8.38;;;;;;;2.26;70.20;94170.41;5072776;28;20032;-56
2021/10/03 03:30:01;;;;;;;12.27;7.97;;;;;;;2.32;70.50;94172.44;5072721;28;20032;-56
2021/10/03 03:32:26;;;;;;;22.65;9.45;;;;;;;2.00;72.08;94119.81;5072621;28;20028;-56
2021/10/03 03:34:52;;;;;;;16.83;8.82;;;;;;;2.42;72.13;94171.06;5072717;28;20032;-54
2021/10/03 03:37:17;;;;;;;25.17;12.63;;;;;;;2.28;72.86;94172.63;5072902;28;20032;-51
2021/10/03 03:39:43;;;;;;;32.67;15.65;;;;;;;2.40;73.56;94174.28;5072598;28;20028;-52
2021/10/03 03:42:08;;;;;;;22.17;13.27;;;;;;;2.48;73.12;94175.34;5071813;28;20024;-52
2021/10/03 03:44:34;;;;;;;26.88;11.57;;;;;;;2.47;72.07;94181.28;5072349;28;20660;-50
2021/10/03 03:47:00;;;;;;;20.23;10.68;;;;;;;2.46;72.60;94180.53;5072311;28;20024;-49
2021/10/03 03:49:26;;;;;;;19.27;10.82;;;;;;;2.46;72.11;94182.50;5072672;28;20020;-51
2021/10/03 03:51:51;;;;;;;20.55;11.90;;;;;;;2.37;72.65;94164.31;5072265;28;20542;-52
2021/10/03 03:54:18;;;;;;;36.58;17.50;;;;;;;2.50;71.58;94178.34;5072528;28;20031;-54
2021/10/03 03:56:43;;;;;;;48.53;16.38;;;;;;;2.33;71.90;94171.97;5072188;28;20488;-49
2021/10/03 03:59:08;;;;;;;57.40;13.65;;;;;;;2.33;72.52;94185.59;5072113;28;20070;-49
2021/10/03 04:01:34;;;;;;;37.08;11.90;;;;;;;2.30;72.37;94191.97;5071964;28;20031;-49
2021/10/03 04:03:59;;;;;;;18.30;9.98;;;;;;;2.29;72.49;94204.88;5072302;28;20066;-49
2021/10/03 04:06:25;;;;;;;24.45;10.13;;;;;;;2.17;72.34;94186.88;5072254;28;20028;-49
2021/10/03 04:08:51;;;;;;;19.15;11.48;;;;;;;2.25;73.06;94201.59;5072230;28;20024;-55
2021/10/03 04:11:17;;;;;;;30.10;12.00;;;;;;;2.30;72.50;94197.44;5072200;28;20028;-56
2021/10/03 04:13:42;;;;;;;20.65;11.35;;;;;;;2.31;72.46;94198.94;5071804;28;20093;-57
2021/10/03 04:16:08;;;;;;;28.05;14.35;;;;;;;2.18;72.66;94198.53;5072027;28;20024;-56
2021/10/03 04:18:33;;;;;;;45.15;19.40;;;;;;;2.27;72.99;94193.69;5071764;28;20021;-56
2021/10/03 04:20:59;;;;;;;31.50;19.00;;;;;;;2.24;72.93;94199.34;5071268;28;20051;-56
2021/10/03 04:23:24;;;;;;;48.47;18.75;;;;;;;2.25;73.15;94196.13;5071753;28;20052;-55
2021/10/03 04:25:50;;;;;;;25.27;16.42;;;;;;;2.21;72.80;94194.84;5071761;28;20025;-57
2021/10/03 04:28:16;;;;;;;36.50;22.63;;;;;;;2.21;73.15;94195.59;5071881;28;20071;-57
2021/10/03 04:30:42;;;;;;;34.08;18.85;;;;;;;2.27;73.63;94199.13;5071755;28;20063;-52
2021/10/03 04:33:07;;;;;;;28.95;17.55;;;;;;;2.33;73.36;94179.38;5071704;28;20028;-51
2021/10/03 04:35:33;;;;;;;28.63;16.30;;;;;;;2.37;73.16;94190.81;5071460;28;20024;-49
2021/10/03 04:37:58;;;;;;;19.30;12.48;;;;;;;2.12;74.09;94143.25;5071637;28;20024;-49
2021/10/03 04:40:24;;;;;;;24.95;13.27;;;;;;;2.37;72.41;94194.31;5071322;28;20025;-50
2021/10/03 04:42:49;;;;;;;27.40;14.05;;;;;;;2.36;72.81;94200.97;5071556;28;20024;-49
2021/10/03 04:45:16;;;;;;;22.35;13.57;;;;;;;2.31;72.74;94198.94;5071442;28;20033;-48
2021/10/03 04:47:42;;;;;;;19.75;10.32;;;;;;;2.26;72.04;94200.38;5071180;28;20056;-49
2021/10/03 04:50:08;;;;;;;20.88;11.57;;;;;;;1.96;72.00;94152.69;5071176;28;20039;-50
2021/10/03 04:52:33;;;;;;;18.95;11.93;;;;;;;2.27;72.38;94203.84;5071080;28;20032;-48
2021/10/03 04:54:59;;;;;;;24.50;11.98;;;;;;;2.26;71.64;94192.19;5071341;28;20028;-50
2021/10/03 04:57:24;;;;;;;21.05;10.90;;;;;;;2.29;71.11;94193.97;5070957;28;20416;-50
2021/10/03 04:59:50;;;;;;;22.20;10.52;;;;;;;2.37;70.98;94193.53;5070989;28;20021;-48
2021/10/03 05:02:15;;;;;;;18.27;9.65;;;;;;;2.32;71.61;94199.69;5071200;28;20020;-50
2021/10/03 05:04:41;;;;;;;17.08;9.95;;;;;;;2.30;71.24;94195.47;5070710;28;20483;-49
2021/10/03 05:07:06;;;;;;;26.73;15.18;;;;;;;2.11;71.54;94185.31;5070891;28;20059;-51
2021/10/03 05:09:33;;;;;;;42.50;22.27;;;;;;;2.25;71.85;94207.03;5071017;28;20025;-50
2021/10/03 05:11:58;;;;;;;46.67;24.30;;;;;;;2.22;72.76;94209.97;5070756;28;20043;-50
2021/10/03 05:14:24;;;;;;;31.50;16.27;;;;;;;2.19;72.11;94208.19;5071078;28;20025;-50
2021/10/03 05:16:50;;;;;;;33.78;17.27;;;;;;;2.28;73.23;94208.81;5070947;28;20546;-50
2021/10/03 05:19:17;;;;;;;23.05;16.02;;;;;;;2.35;72.81;94215.81;5070384;28;20023;-49
2021/10/03 05:21:42;;;;;;;22.10;15.63;;;;;;;2.43;72.72;94216.91;5070292;28;20059;-49
2021/10/03 05:24:08;;;;;;;22.08;13.27;;;;;;;2.48;73.69;94205.34;5070549;28;20032;-49
2021/10/03 05:26:34;;;;;;;22.60;13.48;;;;;;;2.62;73.21;94223.56;5070817;28;20032;-49
2021/10/03 05:29:00;;;;;;;39.50;21.83;;;;;;;2.53;72.67;94193.00;5070496;28;20033;-48
2021/10/03 05:31:25;;;;;;;25.02;14.85;;;;;;;2.90;73.97;94219.16;5070582;28;20031;-53
2021/10/03 05:33:51;;;;;;;20.42;12.32;;;;;;;3.03;73.52;94222.28;5070367;28;20028;-51
2021/10/03 05:36:16;;;;;;;27.15;12.77;;;;;;;3.12;73.36;94221.38;5070768;28;20081;-50
2021/10/03 05:38:42;;;;;;;22.88;12.02;;;;;;;3.27;73.47;94221.28;5070553;28;20568;-50
2021/10/03 05:41:08;;;;;;;34.22;13.55;;;;;;;3.39;73.11;94228.31;5070497;28;20107;-53
2021/10/03 05:43:37;;;;;;;52.08;14.95;;;;;;;3.37;72.17;94212.44;5070370;28;20021;-52
2021/10/03 05:46:03;;;;;;;30.48;15.55;;;;;;;3.46;71.84;94219.69;5069142;28;20036;-51
2021/10/03 05:48:29;;;;;;;28.70;15.20;;;;;;;3.54;72.27;94215.28;5070629;28;20457;-51
2021/10/03 05:50:54;;;;;;;36.08;21.55;;;;;;;3.65;71.76;94220.84;5070313;28;20029;-50
2021/10/03 05:53:20;;;;;;;65.97;24.63;;;;;;;3.66;72.04;94214.16;5070160;28;20028;-52
2021/10/03 05:55:45;;;;;;;78.18;35.95;;;;;;;3.72;72.46;94223.13;5070580;28;20021;-51
2021/10/03 05:58:10;;;;;;;87.80;39.30;;;;;;;3.73;72.47;94202.75;5069738;28;20446;-46
2021/10/03 06:00:36;;;;;;;105.75;46.05;;;;;;;3.94;72.32;94223.28;5069355;28;20423;-50
2021/10/03 06:03:01;;;;;;;97.13;48.63;;;;;;;4.07;72.13;94228.34;5070429;28;20032;-50
2021/10/03 06:05:27;;;;;;;106.10;55.28;;;;;;;4.21;71.28;94230.16;5073686;28;20512;-49
2021/10/03 06:07:52;;;;;;;82.88;35.00;;;;;;;4.31;71.67;94232.19;5074510;28;20411;-50
2021/10/03 06:10:18;;;;;;;73.32;34.20;;;;;;;4.48;71.12;94232.28;5074467;28;20074;-48
2021/10/03 06:12:43;;;;;;;52.97;24.08;;;;;;;5.01;69.14;94229.47;5074438;28;20549;-49
2021/10/03 06:15:09;;;;;;;38.13;18.92;;;;;;;5.66;67.10;94208.16;5074119;28;20408;-50
2021/10/03 06:17:36;;;;;;;19.00;12.02;;;;;;;6.80;64.45;94224.13;5074388;28;20056;-52
2021/10/03 06:20:02;;;;;;;17.20;10.73;;;;;;;8.07;60.63;94225.31;5073642;28;20103;-52
2021/10/03 06:22:27;;;;;;;10.38;7.32;;;;;;;9.41;56.77;94222.53;5073912;28;20055;-51
2021/10/03 06:24:53;;;;;;;35.67;22.50;;;;;;;10.51;53.07;94224.81;5074118;28;20492;-47
2021/10/03 06:27:18;;;;;;;37.00;25.67;;;;;;;11.60;49.98;94214.81;5073872;28;20036;-50
2021/10/03 06:29:45;;;;;;;21.75;15.70;;;;;;;12.77;47.17;94212.69;5074092;28;20098;-50
2021/10/03 06:32:10;;;;;;;12.27;8.63;;;;;;;13.79;44.63;94207.25;5073860;28;20109;-48
2021/10/03 06:34:36;;;;;;;17.40;8.90;;;;;;;14.63;42.43;94209.56;5073795;28;20082;-50
2021/10/03 06:37:02;;;;;;;11.07;7.57;;;;;;;15.28;40.89;94195.91;5055419;28;20044;-53
2021/10/03 06:39:27;;;;;;;16.73;8.85;;;;;;;15.85;39.92;94214.22;5051273;28;20174;-49
2021/10/03 06:41:53;;;;;;;6.07;4.25;;;;;;;16.75;39.18;94211.38;5053976;28;20035;-50
2021/10/03 06:44:18;;;;;;;7.18;4.60;;;;;;;17.44;37.43;94210.88;5067487;28;20024;-50
2021/10/03 06:46:44;;;;;;;14.32;10.60;;;;;;;18.13;36.18;94216.34;5070945;28;20574;-51
2021/10/03 06:49:09;;;;;;;33.25;24.13;;;;;;;18.44;35.30;94197.84;5071192;28;20029;-50
2021/10/03 06:51:35;;;;;;;15.00;13.45;;;;;;;18.85;34.82;94213.59;5073730;28;20032;-49
2021/10/03 06:54:01;;;;;;;9.30;8.18;;;;;;;19.27;34.21;94213.25;5073227;28;20585;-48
2021/10/03 06:56:26;;;;;;;9.85;7.85;;;;;;;19.40;34.67;94201.63;5072278;28;20036;-48
2021/10/03 06:58:52;;;;;;;7.25;6.53;;;;;;;20.50;33.24;94204.56;5073451;28;20081;-50
2021/10/03 07:01:17;;;;;;;9.10;5.72;;;;;;;21.22;31.34;94206.00;5072927;28;20519;-51
2021/10/03 07:03:43;;;;;;;5.93;5.32;;;;;;;21.71;31.05;94205.03;5071451;28;20028;-50
2021/10/03 07:06:09;;;;;;;6.72;6.13;;;;;;;22.53;29.79;94175.78;5071510;28;20031;-49
2021/10/03 07:08:34;;;;;;;8.30;6.35;;;;;;;23.72;28.32;94211.81;5071508;28;20028;-48
2021/10/03 07:11:00;;;;;;;7.78;6.95;;;;;;;24.16;27.45;94202.34;5071363;28;20064;-49
2021/10/03 07:13:25;;;;;;;8.45;6.68;;;;;;;24.49;26.63;94202.03;5071756;28;20028;-49
2021/10/03 07:15:51;;;;;;;29.67;18.98;;;;;;;25.16;25.52;94204.25;5071599;28;20071;-52
2021/10/03 07:18:17;;;;;;;8.60;6.20;;;;;;;24.93;25.89;94207.25;5072946;28;20726;-49
2021/10/03 07:20:43;;;;;;;8.07;5.15;;;;;;;24.68;26.28;94207.28;5072584;28;20508;-49
2021/10/03 07:23:08;;;;;;;10.65;5.03;;;;;;;24.71;26.38;94214.53;5072668;28;20052;-50
2021/10/03 07:25:34;;;;;;;29.83;9.82;;;;;;;25.03;26.55;94209.88;5073041;28;20036;-50
2021/10/03 07:27:59;;;;;;;8.13;5.13;;;;;;;24.52;27.01;94200.75;5072829;28;20130;-49
2021/10/03 07:30:25;;;;;;;7.72;4.88;;;;;;;25.73;25.81;94207.84;5072752;28;20025;-48
2021/10/03 07:32:50;;;;;;;6.68;5.15;;;;;;;27.00;24.28;94206.19;5073025;28;20032;-47
2021/10/03 07:35:16;;;;;;;6.50;5.47;;;;;;;27.76;22.52;94205.25;5071155;28;20024;-49
2021/10/03 07:37:41;;;;;;;6.28;5.22;;;;;;;28.32;22.39;94210.44;5072576;28;20081;-50
2021/10/03 07:40:07;;;;;;;6.97;5.18;;;;;;;28.31;22.09;94202.53;5072885;28;20024;-52
2021/10/03 07:42:33;;;;;;;3.85;3.45;;;;;;;27.64;22.50;94216.06;5072843;28;20024;-47
2021/10/03 07:44:58;;;;;;;3.33;2.30;;;;;;;28.36;21.95;94207.00;5072425;28;20035;-47
2021/10/03 07:47:24;;;;;;;4.10;2.67;;;;;;;28.77;21.23;94207.25;5072380;28;20029;-48
2021/10/03 07:49:49;;;;;;;4.05;3.70;;;;;;;28.45;21.74;94208.81;5072463;28;20040;-48
2021/10/03 07:52:14;;;;;;;4.75;2.40;;;;;;;29.02;20.49;94206.75;5070969;28;20047;-48
2021/10/03 07:54:40;;;;;;;5.00;2.20;;;;;;;29.56;19.82;94196.66;5072565;28;20039;-49
2021/10/03 07:57:05;;;;;;;5.80;3.97;;;;;;;29.93;19.54;94210.78;5072236;28;20028;-48
2021/10/03 07:59:31;;;;;;;7.95;2.38;;;;;;;29.09;20.72;94207.72;5072413;28;20028;-50
2021/10/03 08:01:57;;;;;;;10.30;4.50;;;;;;;28.51;21.21;94201.25;5072462;28;20024;-49
2021/10/03 08:04:22;;;;;;;7.45;3.40;;;;;;;28.68;21.49;94194.09;5072220;28;20562;-49
2021/10/03 08:06:48;;;;;;;64.93;42.13;;;;;;;28.79;21.79;94206.56;5072294;28;20487;-49
2021/10/03 08:09:13;;;;;;;22.42;11.45;;;;;;;28.70;21.74;94201.97;5072259;28;20447;-49
2021/10/03 08:11:39;;;;;;;4.82;2.70;;;;;;;28.41;22.13;94180.94;5072163;28;20564;-52
2021/10/03 08:14:04;;;;;;;4.18;1.80;;;;;;;27.01;22.46;94207.63;5071608;28;20499;-49
2021/10/03 08:16:30;;;;;;;6.10;2.72;;;;;;;27.29;23.66;94210.28;5071114;28;20027;-51
2021/10/03 08:18:58;;;;;;;2.72;2.13;;;;;;;27.37;23.65;94207.81;5070657;28;20420;-49
2021/10/03 08:21:24;;;;;;;4.67;3.10;;;;;;;28.23;22.80;94199.41;5070402;28;20478;-50
2021/10/03 08:23:50;;;;;;;4.25;1.92;;;;;;;27.57;23.46;94194.50;5069380;28;20020;-50
2021/10/03 08:26:16;;;;;;;12.07;2.03;;;;;;;26.89;22.63;94200.69;5068614;28;20058;-48
2021/10/03 08:28:41;;;;;;;6.28;2.38;;;;;;;27.10;22.46;94193.81;5070541;28;20032;-48
2021/10/03 08:31:08;;;;;;;14.43;3.10;;;;;;;28.28;22.58;94204.59;5070889;28;20038;-49
2021/10/03 08:33:33;;;;;;;5.32;2.25;;;;;;;28.93;21.42;94202.19;5070479;28;20097;-50
2021/10/03 08:35:58;;;;;;;6.50;3.33;;;;;;;29.62;19.99;94190.44;5070324;28;20044;-50
2021/10/03 08:38:24;;;;;;;3.30;1.70;;;;;;;29.67;20.68;94187.06;5070746;28;20028;-49
2021/10/03 08:40:50;;;;;;;5.18;3.90;;;;;;;29.76;20.62;94194.53;5070536;28;20017;-51
2021/10/03 08:43:15;;;;;;;11.77;3.95;;;;;;;30.83;20.55;94197.28;5069217;28;20488;-48
2021/10/03 08:45:43;;;;;;;5.70;2.58;;;;;;;31.58;18.58;94203.78;5070270;28;20025;-50
2021/10/03 08:48:10;;;;;;;3.08;2.08;;;;;;;32.06;18.11;94205.09;5070515;28;20028;-50
2021/10/03 08:50:35;;;;;;;5.47;2.15;;;;;;;32.22;17.76;94206.91;5069282;28;20036;-50
2021/10/03 08:53:01;;;;;;;4.32;1.95;;;;;;;32.39;16.81;94205.91;5070497;28;20024;-48
2021/10/03 08:55:26;;;;;;;3.20;1.60;;;;;;;32.01;17.50;94205.69;5070112;28;20620;-52
2021/10/03 08:57:52;;;;;;;2.67;1.88;;;;;;;30.69;19.10;94201.16;5069906;28;20028;-50
2021/10/03 09:00:20;;;;;;;3.75;1.90;;;;;;;31.36;17.90;94194.59;5069806;28;20029;-52
2021/10/03 09:03:02;;;;;;;12.05;7.75;;;;;;;32.52;16.62;94194.13;5069740;28;20166;-50
2021/10/03 09:05:52;;;;;;;3.40;2.25;;;;;;;32.88;16.46;94189.22;5068941;28;20504;-50
2021/10/03 09:08:20;;;;;;;22.05;3.38;;;;;;;33.66;15.82;94189.44;5065060;28;20036;-48
2021/10/03 09:11:04;;;;;;;8.23;2.07;;;;;;;34.51;15.12;94176.66;5069520;28;20112;-48
2021/10/03 09:13:32;;;;;;;4.32;2.28;;;;;;;33.79;15.98;94179.66;5068233;28;20470;-49
2021/10/03 09:16:16;;;;;;;2.45;2.05;;;;;;;32.60;16.05;94187.84;5069590;28;20095;-50
2021/10/03 09:18:55;;;;;;;1.70;1.60;;;;;;;32.89;15.09;94184.97;5067958;28;20111;-50
2021/10/03 09:21:29;;;;;;;3.50;2.15;;;;;;;33.44;15.55;94184.00;5070362;28;20087;-49
2021/10/03 09:24:12;;;;;;;10.88;8.13;;;;;;;34.01;14.22;94191.56;5070541;28;20032;-49
2021/10/03 09:26:51;;;;;;;4.45;2.50;;;;;;;34.20;13.59;94179.00;5070562;28;20107;-50
2021/10/03 09:29:23;;;;;;;7.32;5.38;;;;;;;34.78;13.67;94175.66;5070790;28;20033;-49
2021/10/03 09:32:09;;;;;;;2.30;1.83;;;;;;;34.63;13.71;94179.72;5070847;28;20028;-50
2021/10/03 09:34:35;;;;;;;2.30;1.70;;;;;;;34.39;13.42;94171.44;5070792;28;20059;-48
2021/10/03 09:37:20;;;;;;;5.85;1.73;;;;;;;33.96;14.00;94175.69;5070776;28;20100;-50
2021/10/03 09:39:46;;;;;;;2.13;1.80;;;;;;;34.15;13.85;94166.03;5069846;28;20032;-49
2021/10/03 09:42:13;;;;;;;2.80;2.20;;;;;;;34.62;14.18;94161.78;5070416;28;20028;-48
2021/10/03 09:44:39;;;;;;;5.93;3.45;;;;;;;34.63;14.06;94165.38;5070247;28;20020;-49
2021/10/03 09:47:06;;;;;;;14.07;2.65;;;;;;;34.68;13.25;94150.38;5070375;28;20035;-48
2021/10/03 09:49:32;;;;;;;4.15;1.92;;;;;;;35.03;11.93;94143.75;5070352;28;20121;-50
2021/10/03 09:51:58;;;;;;;4.68;3.30;;;;;;;34.54;11.04;94150.19;5069082;28;20483;-49
2021/10/03 09:54:25;;;;;;;23.70;3.30;;;;;;;35.11;12.45;94156.75;5070480;28;20028;-47
2021/10/03 09:56:51;;;;;;;8.25;2.20;;;;;;;35.36;12.51;94149.88;5070251;28;20031;-48
2021/10/03 09:59:17;;;;;;;1.70;1.50;;;;;;;35.79;12.37;94149.69;5069431;28;20033;-49
2021/10/03 10:01:46;;;;;;;3.78;1.80;;;;;;;35.59;12.37;94135.09;5069943;28;20032;-48
2021/10/03 10:04:16;;;;;;;2.55;1.40;;;;;;;35.52;12.04;94150.81;5070066;28;20165;-48
2021/10/03 10:06:45;;;;;;;8.35;1.80;;;;;;;35.34;12.78;94130.50;5070005;28;20025;-48
2021/10/03 10:09:16;;;;;;;5.75;1.70;;;;;;;34.79;13.02;94142.66;5070441;28;20020;-48
2021/10/03 10:11:49;;;;;;;6.25;1.70;;;;;;;34.66;13.49;94146.75;5070089;28;20012;-48
2021/10/03 10:14:15;;;;;;;2.03;1.60;;;;;;;35.56;12.60;94144.41;5068938;28;20466;-49
2021/10/03 10:16:47;;;;;;;2.40;1.42;;;;;;;35.38;12.75;94139.16;5069557;28;20036;-49
2021/10/03 10:19:34;;;;;;;2.75;1.40;;;;;;;35.58;12.77;94133.66;5069017;28;20464;-49
2021/10/03 10:22:11;;;;;;;10.38;2.17;;;;;;;35.95;11.64;94128.28;5069126;28;20051;-48
2021/10/03 10:24:43;;;;;;;8.00;2.50;;;;;;;36.05;12.21;94125.50;5068440;28;20029;-48
2021/10/03 10:27:08;;;;;;;3.67;1.70;;;;;;;36.01;12.17;94122.59;5068804;28;20089;-49
2021/10/03 10:29:59;;;;;;;3.83;1.60;;;;;;;36.16;12.49;94116.28;5068943;28;20016;-49
2021/10/03 10:32:26;;;;;;;8.75;1.40;;;;;;;35.02;13.26;94112.88;5068180;28;20020;-49
2021/10/03 10:35:09;;;;;;;1.10;1.00;;;;;;;34.36;13.45;94109.72;5065831;28;20028;-52
2021/10/03 10:37:54;;;;;;;2.10;1.27;;;;;;;34.45;13.65;94093.38;5066185;28;20025;-50
2021/10/03 10:40:26;;;;;;;1.30;1.10;;;;;;;34.52;13.25;94097.81;5067011;28;20021;-50
2021/10/03 10:42:54;;;;;;;5.43;1.25;;;;;;;33.47;13.08;94096.72;5068535;28;20024;-50
2021/10/03 10:45:29;;;;;;;14.07;1.88;;;;;;;33.64;14.34;94097.75;5067980;28;20047;-50
2021/10/03 10:48:10;;;;;;;3.42;1.85;;;;;;;34.62;13.93;94090.06;5066096;28;20047;-50
2021/10/03 10:50:49;;;;;;;3.25;1.60;;;;;;;35.01;13.65;94088.44;5068332;28;20024;-48
2021/10/03 10:53:21;;;;;;;3.17;2.55;;;;;;;35.14;13.05;94090.03;5069647;28;20024;-49
2021/10/03 10:56:17;;;;;;;6.18;1.60;;;;;;;35.25;12.69;94091.63;5072310;28;20036;-48
2021/10/03 10:58:51;;;;;;;2.10;1.60;;;;;;;35.28;13.23;94080.88;5070343;28;20032;-49
2021/10/03 11:01:38;;;;;;;2.83;1.90;;;;;;;35.75;12.97;94077.06;5072450;28;20055;-48
2021/10/03 11:04:19;;;;;;;6.68;2.13;;;;;;;35.82;12.69;94077.84;5073024;28;20048;-48
2021/10/03 11:06:55;;;;;;;2.38;1.50;;;;;;;35.35;13.64;94068.75;5073148;28;20041;-48
2021/10/03 11:09:20;;;;;;;5.43;2.40;;;;;;;34.85;13.30;94071.00;5073198;28;20025;-48
2021/10/03 11:11:52;;;;;;;2.30;2.10;;;;;;;34.55;13.12;94067.72;5072244;28;20112;-47
2021/10/03 11:14:19;;;;;;;1.55;1.38;;;;;;;34.84;12.55;94072.44;5073368;28;20024;-47
2021/10/03 11:16:47;;;;;;;2.80;1.43;;;;;;;34.79;13.32;94065.19;5073283;28;20055;-48
2021/10/03 11:19:25;;;;;;;4.70;1.70;;;;;;;34.81;13.24;94065.22;5072558;28;20096;-49
2021/10/03 11:21:57;;;;;;;3.95;2.55;;;;;;;34.49;12.86;94061.88;5072839;28;20048;-48
2021/10/03 11:24:29;;;;;;;3.78;2.08;;;;;;;34.15;13.53;94064.97;5073010;28;20167;-48
2021/10/03 11:26:58;;;;;;;5.13;2.65;;;;;;;33.95;14.49;94053.91;5072754;28;20029;-48
2021/10/03 11:29:32;;;;;;;3.10;1.85;;;;;;;34.03;13.74;94056.91;5072894;28;20021;-49
2021/10/03 11:32:08;;;;;;;3.58;1.88;;;;;;;33.48;13.39;94052.34;5071584;28;20094;-47